aviador You're here:

UATE Decoded Metar

SHEVCHENKO in KAZAKHSTAN
Report Time2018-02-19 07:30:00
UTC Time2018-02-19 07:52:17
Flight Rules vfr VFR
WindVRB at 2 kt
Visibility9999 m
Phenomena:N/A
Clouds:Overcast 033 Hf
Expected CloudBase > 4,000 ft AGL from Temp-Dew spread
Ceiling3,300 ft
Temp01°C (ISA -14)
Dew Point-9°C (48% RH)
AAT-2.7°C
QNH1019 hPa
Density Alt-1,778 ft
Elevation72 ft
Report Wrong Elevation
Raw Report
METAR UATE 190730Z VRB01MPS 9999 OVC033 01/M09 Q1019 R12/0///70 NOSIG
RMK QFE762/1017=

Extra information for UATE:More info

Metar Taf Metar & Taf Last 4 Metars F.Rules Stats Wind Profile Meteogram Temp Stats Airport Information Weather charts Add Link Nearby VenuesMetar ALERT Operation Metar Decoded Social comments